Time;durP1;ratioP1;P1;durP2;ratioP2;P2;SDS_P1;SDS_P2;PMS_P1;PMS_P2;Temp;Humidity;BMP_temperature;BMP_pressure;BME280_temperature;BME280_humidity;BME280_pressure;Samples;Min_cycle;Max_cycle;Signal;HPM_P1;HPM_P2
2023/09/03 00:04:41;;;;;;;;;;;16.60;99.90;;;;;;20989513;28;19924;-74
2023/09/03 00:14:41;;;;;;;;;;;16.30;99.90;;;;;;20988938;28;19912;-75
2023/09/03 00:24:42;;;;;;;;;;;16.70;99.90;;;;;;20987941;28;19920;-74
2023/09/03 00:34:43;;;;;;;;;;;16.30;99.90;;;;;;20987813;28;20425;-75
2023/09/03 00:44:43;;;;;;;;;;;16.50;99.90;;;;;;21000945;28;19923;-75
2023/09/03 00:54:44;;;;;;;;;;;16.10;99.90;;;;;;20983918;28;19912;-74
2023/09/03 01:04:45;;;;;;;;;;;16.10;99.90;;;;;;20983340;28;20137;-75
2023/09/03 01:15:14;;;;;;;;;;;16.00;99.90;;;;;;21000781;28;20378;-74
2023/09/03 01:25:14;;;;;;;;;;;15.80;99.90;;;;;;21011038;28;19940;-75
2023/09/03 01:35:16;;;;;;;;;;;15.50;99.90;;;;;;20997798;28;19921;-74
2023/09/03 01:45:17;;;;;;;;;;;15.30;99.90;;;;;;20979880;28;20342;-74
2023/09/03 01:55:18;;;;;;;;;;;15.40;99.90;;;;;;20996710;28;19916;-75
2023/09/03 02:05:19;;;;;;;;;;;15.40;99.90;;;;;;20996575;28;19994;-74
2023/09/03 02:15:20;;;;;;;;;;;15.20;99.90;;;;;;20986095;28;19916;-75
2023/09/03 02:25:21;;;;;;;;;;;15.30;99.90;;;;;;21010559;28;19920;-75
2023/09/03 02:35:22;;;;;;;;;;;15.00;99.90;;;;;;21002737;28;19912;-75
2023/09/03 02:45:23;;;;;;;;;;;14.80;99.90;;;;;;21017991;28;19916;-75
2023/09/03 02:55:23;;;;;;;;;;;14.70;99.90;;;;;;21062068;28;19912;-75
2023/09/03 03:05:24;;;;;;;;;;;14.50;99.90;;;;;;20989895;28;20302;-74
2023/09/03 03:15:25;;;;;;;;;;;14.40;99.90;;;;;;20972475;28;20457;-74
2023/09/03 03:25:26;;;;;;;;;;;14.50;99.90;;;;;;20971989;28;20363;-75
2023/09/03 03:35:28;;;;;;;;;;;14.50;99.90;;;;;;20971793;28;20118;-74
2023/09/03 03:45:28;;;;;;;;;;;14.30;99.90;;;;;;20989145;28;20374;-75
2023/09/03 03:55:29;;;;;;;;;;;14.10;99.90;;;;;;20988744;28;20286;-74
2023/09/03 04:05:30;;;;;;;;;;;14.10;99.90;;;;;;20970222;28;20284;-75
2023/09/03 04:15:30;;;;;;;;;;;14.00;99.90;;;;;;21011766;28;19912;-75
2023/09/03 04:25:32;;;;;;;;;;;14.00;99.90;;;;;;20985915;28;19916;-75
2023/09/03 04:35:33;;;;;;;;;;;13.80;99.90;;;;;;20982123;28;20003;-74
2023/09/03 04:45:34;;;;;;;;;;;13.90;99.90;;;;;;21125070;22;19927;-77
2023/09/03 04:55:37;;;;;;;;;;;13.70;99.90;;;;;;21150034;28;20017;-78
2023/09/03 05:05:39;;;;;;;;;;;13.80;99.90;;;;;;21173080;28;20297;-77
2023/09/03 05:15:41;;;;;;;;;;;13.60;99.90;;;;;;21159773;28;19980;-77
2023/09/03 05:25:43;;;;;;;;;;;13.70;99.90;;;;;;21141364;28;19916;-77
2023/09/03 05:35:44;;;;;;;;;;;14.00;99.90;;;;;;21164113;28;19915;-78
2023/09/03 05:45:45;;;;;;;;;;;14.20;99.90;;;;;;21176081;28;19942;-77
2023/09/03 05:55:47;;;;;;;;;;;14.30;99.90;;;;;;21138721;28;19912;-78
2023/09/03 06:05:48;;;;;;;;;;;14.70;99.90;;;;;;21172307;28;20286;-77
2023/09/03 06:15:49;;;;;;;;;;;15.30;99.90;;;;;;21086505;28;19919;-75
2023/09/03 06:25:50;;;;;;;;;;;15.80;99.90;;;;;;21157091;28;19962;-77
2023/09/03 06:35:51;;;;;;;;;;;16.30;99.90;;;;;;21171786;28;19916;-75
2023/09/03 06:45:52;;;;;;;;;;;17.00;99.90;;;;;;21168881;28;20285;-76
2023/09/03 06:55:52;;;;;;;;;;;17.30;99.90;;;;;;21116990;28;19912;-77
2023/09/03 07:05:53;;;;;;;;;;;17.90;99.90;;;;;;21107952;28;19919;-77
2023/09/03 07:15:54;;;;;;;;;;;18.30;99.90;;;;;;21111511;28;19927;-77
2023/09/03 07:25:54;;;;;;;;;;;19.30;99.90;;;;;;21083420;28;19924;-77
2023/09/03 07:35:55;;;;;;;;;;;20.30;99.90;;;;;;21084903;28;19919;-77
2023/09/03 07:45:56;;;;;;;;;;;20.90;99.90;;;;;;21084668;28;19924;-77
2023/09/03 07:55:56;;;;;;;;;;;22.10;99.90;;;;;;21084203;28;19927;-77
2023/09/03 08:05:58;;;;;;;;;;;21.80;99.90;;;;;;21080701;28;19931;-77
2023/09/03 08:15:59;;;;;;;;;;;21.90;99.90;;;;;;21092159;28;19919;-76
2023/09/03 08:25:59;;;;;;;;;;;22.50;99.90;;;;;;21008557;28;20565;-77
2023/09/03 08:36:01;;;;;;;;;;;22.50;99.90;;;;;;20947029;28;20191;-77
2023/09/03 08:46:04;;;;;;;;;;;23.30;99.90;;;;;;20851011;28;20230;-77
2023/09/03 08:56:05;;;;;;;;;;;24.80;99.90;;;;;;21130811;28;19938;-77
2023/09/03 09:06:07;;;;;;;;;;;25.70;99.90;;;;;;21159176;28;19919;-78
2023/09/03 09:16:08;;;;;;;;;;;25.60;99.90;;;;;;21174231;28;19972;-75
2023/09/03 09:26:17;;;;;;;;;;;25.70;99.90;;;;;;21155698;28;19928;-77
2023/09/03 09:36:18;;;;;;;;;;;26.50;99.90;;;;;;21160492;28;19912;-76
2023/09/03 09:46:26;;;;;;;;;;;27.40;99.90;;;;;;21160869;28;19974;-77
2023/09/03 09:56:28;;;;;;;;;;;26.90;99.90;;;;;;21186780;28;19911;-77
2023/09/03 10:06:29;;;;;;;;;;;26.40;99.90;;;;;;21182459;28;19916;-78
2023/09/03 10:16:30;;;;;;;;;;;27.10;99.90;;;;;;21076329;28;19935;-76
2023/09/03 10:26:37;;;;;;;;;;;26.70;99.90;;;;;;21160961;28;20013;-77
2023/09/03 10:36:37;;;;;;;;;;;26.50;99.90;;;;;;21162444;28;20787;-77
2023/09/03 10:46:58;;;;;;;;;;;26.90;99.90;;;;;;21163027;28;19988;-78
2023/09/03 10:57:05;;;;;;;;;;;27.50;99.90;;;;;;21163233;28;19911;-77
2023/09/03 11:07:25;;;;;;;;;;;28.10;99.90;;;;;;21158026;28;19916;-76
2023/09/03 11:17:26;;;;;;;;;;;27.60;99.90;;;;;;21157273;28;19915;-77
2023/09/03 11:27:27;;;;;;;;;;;28.30;99.90;;;;;;21158899;28;19998;-77
2023/09/03 11:37:28;;;;;;;;;;;29.70;99.90;;;;;;21164468;28;19968;-76
2023/09/03 11:47:28;;;;;;;;;;;29.90;99.90;;;;;;21157818;28;19927;-77
2023/09/03 11:57:30;;;;;;;;;;;29.80;99.90;;;;;;21153570;28;19923;-76
2023/09/03 12:07:30;;;;;;;;;;;29.60;99.90;;;;;;21146634;28;19973;-79
2023/09/03 12:17:31;;;;;;;;;;;29.50;99.90;;;;;;21168502;28;19951;-75
2023/09/03 12:27:46;;;;;;;;;;;30.60;99.90;;;;;;21158518;28;20404;-78
2023/09/03 12:37:47;;;;;;;;;;;30.50;99.90;;;;;;21144034;28;19912;-75
2023/09/03 12:47:48;;;;;;;;;;;30.30;99.90;;;;;;21128699;28;20281;-76
2023/09/03 12:57:48;;;;;;;;;;;30.40;99.90;;;;;;21168787;28;19996;-76
2023/09/03 13:07:49;;;;;;;;;;;30.60;99.90;;;;;;21139714;28;19924;-76
2023/09/03 13:17:50;;;;;;;;;;;29.90;99.90;;;;;;21165178;28;19912;-76
2023/09/03 13:27:50;;;;;;;;;;;30.00;99.90;;;;;;21148009;28;19942;-77
2023/09/03 13:37:51;;;;;;;;;;;30.80;99.90;;;;;;21161661;28;19926;-75
2023/09/03 13:47:52;;;;;;;;;;;31.20;99.90;;;;;;21162944;28;19920;-77
2023/09/03 13:57:53;;;;;;;;;;;30.90;99.90;;;;;;21147244;28;20363;-77
2023/09/03 14:07:54;;;;;;;;;;;30.60;99.90;;;;;;21158289;28;19955;-77
2023/09/03 14:17:54;;;;;;;;;;;29.90;99.90;;;;;;21153715;28;19951;-77
2023/09/03 14:27:55;;;;;;;;;;;30.30;99.90;;;;;;21147842;28;20303;-77
2023/09/03 14:37:56;;;;;;;;;;;30.40;99.90;;;;;;21146377;28;19919;-76
2023/09/03 14:47:56;;;;;;;;;;;30.20;99.90;;;;;;21161299;28;19927;-76
2023/09/03 14:57:57;;;;;;;;;;;30.80;99.90;;;;;;21157891;28;19912;-76
2023/09/03 15:07:58;;;;;;;;;;;29.90;99.90;;;;;;21159578;28;20382;-76
2023/09/03 15:18:02;;;;;;;;;;;29.70;99.90;;;;;;21158086;28;19912;-76
2023/09/03 15:28:03;;;;;;;;;;;29.50;99.90;;;;;;21139452;28;19957;-76
2023/09/03 15:38:05;;;;;;;;;;;29.00;99.90;;;;;;21158104;28;20293;-76
2023/09/03 15:48:06;;;;;;;;;;;28.80;99.90;;;;;;21156329;28;20378;-76
2023/09/03 15:58:08;;;;;;;;;;;28.60;99.90;;;;;;21149548;28;20025;-76
2023/09/03 16:08:08;;;;;;;;;;;29.10;99.90;;;;;;21159039;28;19922;-76
2023/09/03 16:18:10;;;;;;;;;;;28.80;99.90;;;;;;21169640;28;20007;-76
2023/09/03 16:28:11;;;;;;;;;;;28.20;99.90;;;;;;21149135;28;19923;-76
2023/09/03 16:38:11;;;;;;;;;;;28.10;99.90;;;;;;21135073;28;19916;-77
2023/09/03 16:48:12;;;;;;;;;;;28.00;99.90;;;;;;21170369;28;19916;-76
2023/09/03 16:58:13;;;;;;;;;;;27.80;99.90;;;;;;21164461;27;20356;-76
2023/09/03 17:08:13;;;;;;;;;;;27.50;99.90;;;;;;21168884;28;19915;-77
2023/09/03 17:18:14;;;;;;;;;;;27.30;99.90;;;;;;21168102;28;20241;-76
2023/09/03 17:28:15;;;;;;;;;;;26.60;99.90;;;;;;21125439;28;20027;-74
2023/09/03 17:38:15;;;;;;;;;;;25.20;99.90;;;;;;21163922;28;19946;-76
2023/09/03 17:48:16;;;;;;;;;;;23.90;99.90;;;;;;21156312;28;20335;-76
2023/09/03 17:58:17;;;;;;;;;;;23.30;99.90;;;;;;21144651;28;19912;-76
2023/09/03 18:08:17;;;;;;;;;;;23.30;99.90;;;;;;21164297;28;19966;-76
2023/09/03 18:18:18;;;;;;;;;;;23.00;99.90;;;;;;21156847;28;20681;-76
2023/09/03 18:28:19;;;;;;;;;;;22.40;99.90;;;;;;21135960;28;19915;-76
2023/09/03 18:38:19;;;;;;;;;;;22.50;99.90;;;;;;21141503;28;20400;-75
2023/09/03 18:48:22;;;;;;;;;;;22.20;99.90;;;;;;21158778;28;21393;-76
2023/09/03 18:58:23;;;;;;;;;;;22.10;99.90;;;;;;21156477;28;20018;-76
2023/09/03 19:08:23;;;;;;;;;;;21.90;99.90;;;;;;21142669;28;19924;-77
2023/09/03 19:18:24;;;;;;;;;;;21.60;99.90;;;;;;21122943;28;19951;-78
2023/09/03 19:28:24;;;;;;;;;;;21.60;99.90;;;;;;21170315;28;19919;-77
2023/09/03 19:38:26;;;;;;;;;;;21.40;99.90;;;;;;21136496;28;19912;-75
2023/09/03 19:48:30;;;;;;;;;;;21.20;99.90;;;;;;21149513;28;19923;-78
2023/09/03 19:58:34;;;;;;;;;;;21.00;99.90;;;;;;21179824;28;20289;-76
2023/09/03 20:08:34;;;;;;;;;;;20.80;99.90;;;;;;21181954;28;19955;-77
2023/09/03 20:18:35;;;;;;;;;;;20.90;99.90;;;;;;21178097;28;20323;-78
2023/09/03 20:28:36;;;;;;;;;;;21.00;99.90;;;;;;21169538;28;19916;-78
2023/09/03 20:38:37;;;;;;;;;;;20.80;99.90;;;;;;21179961;28;19952;-77
2023/09/03 20:48:38;;;;;;;;;;;20.80;99.90;;;;;;21175026;28;19922;-77
2023/09/03 20:58:38;;;;;;;;;;;20.60;99.90;;;;;;21190845;28;19918;-77
2023/09/03 21:08:39;;;;;;;;;;;20.60;99.90;;;;;;21129474;28;19916;-77
2023/09/03 21:18:40;;;;;;;;;;;20.50;99.90;;;;;;21155932;28;19912;-77
2023/09/03 21:28:40;;;;;;;;;;;20.30;99.90;;;;;;21165190;28;19976;-77
2023/09/03 21:38:41;;;;;;;;;;;20.20;99.90;;;;;;21163909;28;19912;-78
2023/09/03 21:48:42;;;;;;;;;;;20.20;99.90;;;;;;21150466;28;19934;-78
2023/09/03 21:58:42;;;;;;;;;;;20.20;99.90;;;;;;21182504;28;19923;-77
2023/09/03 22:08:43;;;;;;;;;;;20.20;99.90;;;;;;21123316;28;20400;-77
2023/09/03 22:18:44;;;;;;;;;;;20.20;99.90;;;;;;21096898;28;19920;-77
2023/09/03 22:28:45;;;;;;;;;;;20.20;99.90;;;;;;21083052;28;19916;-77
2023/09/03 22:38:45;;;;;;;;;;;19.80;99.90;;;;;;21133479;28;19915;-77
2023/09/03 22:48:46;;;;;;;;;;;19.30;99.90;;;;;;21166092;28;19915;-77
2023/09/03 22:58:47;;;;;;;;;;;18.90;99.90;;;;;;21167776;28;20370;-76
2023/09/03 23:08:47;;;;;;;;;;;18.70;99.90;;;;;;21160650;28;20002;-76
2023/09/03 23:18:48;;;;;;;;;;;18.80;99.90;;;;;;21143597;28;20266;-76
2023/09/03 23:28:48;;;;;;;;;;;19.10;99.90;;;;;;21162273;28;19959;-77
2023/09/03 23:38:49;;;;;;;;;;;19.00;99.90;;;;;;21095931;28;19956;-77
2023/09/03 23:48:50;;;;;;;;;;;19.10;99.90;;;;;;21058233;28;19955;-77
2023/09/03 23:58:50;;;;;;;;;;;19.20;99.90;;;;;;21125723;28;20290;-77
